createdAt,value
2023-04-03T00:01:08.453Z,102008.76
2023-04-03T00:03:43.769Z,102005.91
2023-04-03T00:06:37.359Z,102011.34
2023-04-03T00:09:12.078Z,102001.73
2023-04-03T00:11:53.420Z,102000.38
2023-04-03T00:14:29.916Z,102012.06
2023-04-03T00:17:17.887Z,102012.42
2023-04-03T00:19:54.551Z,102015.33
2023-04-03T00:22:29.061Z,102020.20
2023-04-03T00:25:04.927Z,102015.36
2023-04-03T00:27:50.885Z,102016.21
2023-04-03T00:30:48.063Z,102019.97
2023-04-03T00:33:29.754Z,102024.26
2023-04-03T00:36:13.883Z,102025.73
2023-04-03T00:38:48.764Z,102024.32
2023-04-03T00:41:23.665Z,102029.16
2023-04-03T00:44:00.137Z,102020.66
2023-04-03T00:46:28.235Z,102022.95
2023-04-03T00:48:59.920Z,102030.92
2023-04-03T00:51:48.518Z,102027.23
2023-04-03T00:54:19.289Z,102023.54
2023-04-03T00:56:57.185Z,102028.38
2023-04-03T00:59:53.883Z,102022.72
2023-04-03T01:02:47.107Z,102022.20
2023-04-03T01:05:20.940Z,102029.84
2023-04-03T01:07:55.108Z,102023.05
2023-04-03T01:10:34.349Z,102031.61
2023-04-03T01:13:20.051Z,102025.66
2023-04-03T01:15:56.423Z,102025.10
2023-04-03T01:18:35.702Z,102027.10
2023-04-03T01:21:38.087Z,102022.03
2023-04-03T01:24:30.086Z,102021.73
2023-04-03T01:27:03.533Z,102024.32
2023-04-03T01:29:37.054Z,102028.05
2023-04-03T01:35:30.823Z,102035.14
2023-04-03T01:38:14.150Z,102031.74
2023-04-03T01:40:50.191Z,102028.05
2023-04-03T01:43:34.726Z,102029.75
2023-04-03T01:46:18.458Z,102036.55
2023-04-03T01:48:54.314Z,102033.45
2023-04-03T01:51:27.522Z,102040.54
2023-04-03T01:53:58.917Z,102042.83
2023-04-03T01:56:57.345Z,102037.73
2023-04-03T01:59:30.430Z,102047.66
2023-04-03T02:02:10.079Z,102043.16
2023-04-03T02:04:40.799Z,102053.91
2023-04-03T02:07:32.301Z,102055.35
2023-04-03T02:10:15.383Z,102059.89
2023-04-03T02:12:59.337Z,102056.49
2023-04-03T02:15:49.436Z,102072.68
2023-04-03T02:18:23.240Z,102064.18
2023-04-03T02:21:00.109Z,102065.06
2023-04-03T02:23:40.207Z,102071.01
2023-04-03T02:26:29.374Z,102071.56
2023-04-03T02:29:02.375Z,102071.30
2023-04-03T02:31:50.324Z,102079.55
2023-04-03T02:34:27.109Z,102078.95
2023-04-03T02:37:00.105Z,102082.65
2023-04-03T02:39:33.312Z,102078.10
2023-04-03T02:42:01.251Z,102074.15
2023-04-03T02:44:38.318Z,102075.88
2023-04-03T02:47:18.186Z,102082.09
2023-04-03T02:50:01.221Z,102085.23
2023-04-03T02:52:29.851Z,102095.73
2023-04-03T02:55:11.755Z,102097.95
2023-04-03T02:57:59.976Z,102096.02
2023-04-03T03:00:33.297Z,102095.70
2023-04-03T03:03:13.637Z,102099.09
2023-04-03T03:05:52.503Z,102093.47
2023-04-03T03:08:38.556Z,102091.74
2023-04-03T03:11:20.056Z,102085.82
2023-04-03T03:13:56.417Z,102085.82
2023-04-03T03:16:38.107Z,102083.24
2023-04-03T03:19:22.525Z,102088.38
2023-04-03T03:21:55.306Z,102088.38
2023-04-03T03:24:23.291Z,102091.19
2023-04-03T03:26:59.180Z,102086.34
2023-04-03T03:29:57.567Z,102088.34
2023-04-03T03:32:33.575Z,102082.42
2023-04-03T03:35:06.500Z,102085.52
2023-04-03T03:37:52.039Z,102085.23
2023-04-03T03:40:30.723Z,102090.04
2023-04-03T03:43:01.933Z,102084.68
2023-04-03T03:45:51.243Z,102082.68
2023-04-03T03:48:44.704Z,102081.24
2023-04-03T03:51:24.508Z,102076.73
2023-04-03T03:53:57.998Z,102080.69
2023-04-03T03:56:32.301Z,102076.14
2023-04-03T03:59:05.099Z,102088.34
2023-04-03T04:01:38.992Z,102088.63
2023-04-03T04:04:12.184Z,102093.15
2023-04-03T04:06:43.133Z,102091.74
2023-04-03T04:09:14.204Z,102081.54
2023-04-03T04:11:47.140Z,102090.89
2023-04-03T04:14:18.119Z,102103.31
2023-04-03T04:16:52.792Z,102097.10
2023-04-03T04:19:39.294Z,102098.21
2023-04-03T04:22:30.318Z,102100.77
2023-04-03T04:25:01.591Z,102101.35
2023-04-03T04:28:03.718Z,102112.66
2023-04-03T04:30:36.941Z,102105.02
2023-04-03T04:33:05.151Z,102105.30
2023-04-03T04:35:58.780Z,102105.30
2023-04-03T04:38:32.101Z,102096.52
2023-04-03T04:41:05.188Z,102104.72
2023-04-03T04:43:44.170Z,102103.31
2023-04-03T04:46:26.677Z,102095.37
2023-04-03T04:49:00.899Z,102097.37
2023-04-03T04:51:41.051Z,102090.27
2023-04-03T04:54:12.720Z,102092.79
2023-04-03T04:56:50.206Z,102099.33
2023-04-03T04:59:23.318Z,102089.68
2023-04-03T05:02:03.922Z,102087.42
2023-04-03T05:04:57.453Z,102094.52
2023-04-03T05:07:31.807Z,102097.92
2023-04-03T05:10:16.374Z,102105.27
2023-04-03T05:13:02.215Z,102098.48
2023-04-03T05:15:30.320Z,102103.28
2023-04-03T05:18:04.784Z,102104.72
2023-04-03T05:20:46.095Z,102104.98
2023-04-03T05:23:18.885Z,102103.87
2023-04-03T05:25:59.379Z,102105.54
2023-04-03T05:28:33.457Z,102103.28
2023-04-03T05:31:06.533Z,102117.15
2023-04-03T05:34:15.597Z,102117.99
2023-04-03T05:36:48.377Z,102118.88
2023-04-03T05:39:42.191Z,102108.12
2023-04-03T05:42:22.901Z,102109.23
2023-04-03T05:45:05.528Z,102118.55
2023-04-03T05:47:36.983Z,102102.43
2023-04-03T05:50:36.275Z,102108.09
2023-04-03T05:53:19.596Z,102108.38
2023-04-03T05:58:50.721Z,102116.59
2023-04-03T06:01:32.547Z,102116.88
2023-04-03T06:04:06.462Z,102116.03
2023-04-03T06:06:57.486Z,102112.63
2023-04-03T06:09:29.535Z,102118.29
2023-04-03T06:12:02.854Z,102117.73
2023-04-03T06:14:56.223Z,102115.48
2023-04-03T06:17:32.329Z,102125.68
2023-04-03T06:20:00.802Z,102123.42
2023-04-03T06:22:32.582Z,102112.11
2023-04-03T06:25:07.569Z,102126.27
2023-04-03T06:27:40.491Z,102122.87
2023-04-03T06:30:14.188Z,102120.58
2023-04-03T06:32:47.165Z,102123.42
2023-04-03T06:35:20.272Z,102119.17
2023-04-03T06:38:01.653Z,102115.80
2023-04-03T06:40:42.943Z,102122.08
2023-04-03T06:43:24.387Z,102116.39
2023-04-03T06:49:13.328Z,102116.39
2023-04-03T06:51:41.613Z,102120.64
2023-04-03T06:54:34.908Z,102127.15
2023-04-03T06:57:07.729Z,102123.75
2023-04-03T06:59:39.073Z,102128.00
2023-04-03T07:02:10.642Z,102128.88
2023-04-03T07:04:47.548Z,102122.93
2023-04-03T07:07:27.992Z,102125.19
2023-04-03T07:09:59.533Z,102121.23
2023-04-03T07:12:33.635Z,102116.66
2023-04-03T07:15:11.052Z,102126.30
2023-04-03T07:17:53.032Z,102120.38
2023-04-03T07:20:25.917Z,102136.53
2023-04-03T07:23:00.106Z,102142.19
2023-04-03T07:25:34.106Z,102130.29
2023-04-03T07:28:14.318Z,102136.50
2023-04-03T07:30:49.598Z,102138.76
2023-04-03T07:33:26.532Z,102144.19
2023-04-03T07:35:54.701Z,102137.05
2023-04-03T07:38:28.180Z,102137.65
2023-04-03T07:41:08.214Z,102136.20
2023-04-03T07:43:47.334Z,102136.53
2023-04-03T07:46:30.752Z,102143.86
2023-04-03T07:49:05.022Z,102141.34
2023-04-03T07:51:58.203Z,102141.60
2023-04-03T07:54:45.973Z,102148.99
2023-04-03T07:57:18.885Z,102152.66
2023-04-03T07:59:58.133Z,102148.40
2023-04-03T08:02:37.222Z,102146.15
2023-04-03T08:05:14.039Z,102138.79
2023-04-03T08:07:42.103Z,102146.44
2023-04-03T08:10:22.872Z,102140.75
2023-04-03T08:13:00.650Z,102146.70
2023-04-03T08:15:48.842Z,102145.85
2023-04-03T08:18:18.002Z,102146.12
2023-04-03T08:20:48.715Z,102142.16
2023-04-03T08:23:19.931Z,102151.21
2023-04-03T08:25:48.353Z,102144.41
2023-04-03T08:28:21.266Z,102142.98
2023-04-03T08:30:49.254Z,102147.23
2023-04-03T08:33:26.236Z,102147.81
2023-04-03T08:35:56.677Z,102149.80
2023-04-03T08:38:24.630Z,102149.52
2023-04-03T08:41:07.329Z,102158.90
2023-04-03T08:43:56.794Z,102150.66
2023-04-03T08:46:29.818Z,102154.32
2023-04-03T08:49:00.501Z,102158.54
2023-04-03T08:51:33.684Z,102157.43
2023-04-03T08:56:59.405Z,102155.17
2023-04-03T08:59:30.655Z,102156.28
2023-04-03T09:02:00.177Z,102162.30
2023-04-03T09:04:31.413Z,102159.72
2023-04-03T09:07:10.809Z,102161.71
2023-04-03T09:09:46.955Z,102163.67
2023-04-03T09:12:27.988Z,102163.41
2023-04-03T09:15:39.205Z,102164.81
2023-04-03T09:18:24.782Z,102166.26
2023-04-03T09:21:02.081Z,102160.27
2023-04-03T09:23:49.758Z,102162.85
2023-04-03T09:26:23.824Z,102157.43
2023-04-03T09:29:01.844Z,102158.27
2023-04-03T09:31:35.368Z,102158.24
2023-04-03T09:34:10.252Z,102160.53
2023-04-03T09:37:08.101Z,102163.90
2023-04-03T09:40:01.811Z,102163.05
2023-04-03T09:42:30.990Z,102151.41
2023-04-03T09:45:09.076Z,102167.04
2023-04-03T09:47:40.956Z,102160.23
2023-04-03T09:50:27.555Z,102162.23
2023-04-03T09:53:00.098Z,102153.41
2023-04-03T09:55:37.187Z,102153.41
2023-04-03T09:58:42.717Z,102153.34
2023-04-03T10:01:30.315Z,102151.34
2023-04-03T10:04:25.148Z,102149.35
2023-04-03T10:06:57.974Z,102149.58
2023-04-03T10:09:30.420Z,102145.59
2023-04-03T10:12:09.437Z,102148.11
2023-04-03T10:15:00.499Z,102147.20
2023-04-03T10:17:54.028Z,102138.92
2023-04-03T10:20:29.841Z,102137.74
2023-04-03T10:23:25.467Z,102142.81
2023-04-03T10:26:19.678Z,102141.08
2023-04-03T10:29:30.784Z,102141.08
2023-04-03T10:32:41.632Z,102139.21
2023-04-03T10:35:33.971Z,102136.89
2023-04-03T10:38:57.714Z,102135.68
2023-04-03T10:41:46.841Z,102133.95
2023-04-03T10:44:34.518Z,102132.77
2023-04-03T10:47:17.439Z,102130.19
2023-04-03T10:49:57.093Z,102127.58
2023-04-03T10:53:00.805Z,102126.73
2023-04-03T10:55:39.497Z,102123.29
2023-04-03T10:58:10.611Z,102124.63
2023-04-03T11:00:46.048Z,102125.19
2023-04-03T11:03:34.634Z,102122.38
2023-04-03T11:06:04.489Z,102115.48
2023-04-03T11:09:01.913Z,102122.48
2023-04-03T11:11:44.012Z,102117.80
2023-04-03T11:14:18.638Z,102115.58
2023-04-03T11:16:58.711Z,102116.06
2023-04-03T11:19:57.214Z,102114.10
2023-04-03T11:22:34.531Z,102104.85
2023-04-03T11:25:12.721Z,102107.34
2023-04-03T11:27:44.666Z,102110.73
2023-04-03T11:30:22.760Z,102100.99
2023-04-03T11:33:05.924Z,102100.02
2023-04-03T11:35:40.662Z,102091.19
2023-04-03T11:38:37.187Z,102092.33
2023-04-03T11:41:35.324Z,102109.33
2023-04-03T11:44:08.135Z,102098.61
2023-04-03T11:46:57.630Z,102102.56
2023-04-03T11:50:03.436Z,102100.93
2023-04-03T11:52:45.166Z,102101.94
2023-04-03T11:55:33.784Z,102092.07
2023-04-03T11:58:15.638Z,102090.98
2023-04-03T12:04:11.670Z,102078.17
2023-04-03T12:06:51.204Z,102081.80
2023-04-03T12:09:30.541Z,102086.45
2023-04-03T12:11:59.680Z,102069.87
2023-04-03T12:14:30.438Z,102073.59
2023-04-03T12:17:14.326Z,102083.30
2023-04-03T12:19:50.117Z,102077.65
2023-04-03T12:22:31.860Z,102073.49
2023-04-03T12:25:27.441Z,102067.80
2023-04-03T12:28:00.188Z,102058.48
2023-04-03T12:30:34.016Z,102072.71
2023-04-03T12:33:20.252Z,102073.37
2023-04-03T12:36:08.600Z,102068.91
2023-04-03T12:39:30.894Z,102077.02
2023-04-03T12:42:20.696Z,102072.16
2023-04-03T12:45:02.999Z,102064.05
2023-04-03T12:47:43.292Z,102058.52
2023-04-03T12:50:36.282Z,102067.12
2023-04-03T12:53:16.404Z,102072.91
2023-04-03T12:55:45.160Z,102063.55
2023-04-03T12:58:26.129Z,102059.57
2023-04-03T13:01:13.550Z,102061.27
2023-04-03T13:03:49.133Z,102059.47
2023-04-03T13:06:22.037Z,102058.91
2023-04-03T13:09:01.799Z,102057.15
2023-04-03T13:11:32.914Z,102061.10
2023-04-03T13:14:19.249Z,102064.41
2023-04-03T13:17:06.842Z,102052.47
2023-04-03T13:19:50.767Z,102048.41
2023-04-03T13:22:45.830Z,102057.18
2023-04-03T13:25:17.749Z,102052.90
2023-04-03T13:27:46.489Z,102050.64
2023-04-03T13:30:30.874Z,102055.80
2023-04-03T13:33:02.711Z,102053.19
2023-04-03T13:35:45.759Z,102042.11
2023-04-03T13:38:19.811Z,102051.03
2023-04-03T13:40:55.380Z,102049.27
2023-04-03T13:43:28.610Z,102047.21
2023-04-03T13:46:00.863Z,102044.30
2023-04-03T13:48:46.329Z,102039.06
2023-04-03T13:51:41.226Z,102035.63
2023-04-03T13:54:32.232Z,102042.01
2023-04-03T13:57:01.561Z,102034.91
2023-04-03T13:59:35.396Z,102036.98
2023-04-03T14:02:34.882Z,102036.35
2023-04-03T14:05:10.637Z,102036.29
2023-04-03T14:08:03.668Z,102034.36
2023-04-03T14:10:43.024Z,102035.50
2023-04-03T14:13:28.424Z,102044.10
2023-04-03T14:16:15.439Z,102049.34
2023-04-03T14:18:49.568Z,102028.24
2023-04-03T14:21:23.659Z,102040.47
2023-04-03T14:23:52.118Z,102039.46
2023-04-03T14:26:24.717Z,102031.55
2023-04-03T14:29:06.822Z,102029.52
2023-04-03T14:31:43.578Z,102035.50
2023-04-03T14:34:22.897Z,102031.48
2023-04-03T14:36:51.027Z,102035.50
2023-04-03T14:39:44.422Z,102026.15
2023-04-03T14:42:20.810Z,102021.93
2023-04-03T14:44:51.673Z,102027.07
2023-04-03T14:47:30.408Z,102031.05
2023-04-03T14:50:04.660Z,102021.15
2023-04-03T14:52:38.476Z,102015.43
2023-04-03T14:55:14.362Z,102022.36
2023-04-03T14:57:53.623Z,102020.59
2023-04-03T15:00:22.824Z,102020.59
2023-04-03T15:02:56.930Z,102021.51
2023-04-03T15:05:32.659Z,102006.08
2023-04-03T15:08:11.604Z,102016.05
2023-04-03T15:10:40.105Z,102022.29
2023-04-03T15:13:11.282Z,102003.79
2023-04-03T15:15:45.503Z,102013.98
2023-04-03T15:18:19.435Z,102014.55
2023-04-03T15:20:47.584Z,102015.16
2023-04-03T15:23:19.193Z,102016.96
2023-04-03T15:25:48.254Z,102016.11
2023-04-03T15:28:42.958Z,102018.11
2023-04-03T15:31:15.503Z,102019.02
2023-04-03T15:33:43.588Z,102025.34
2023-04-03T15:36:23.022Z,102024.78
2023-04-03T15:39:03.200Z,102021.38
2023-04-03T15:42:15.740Z,102017.68
2023-04-03T15:44:57.362Z,102029.35
2023-04-03T15:47:30.298Z,102033.90
2023-04-03T15:50:08.322Z,102035.89
2023-04-03T15:52:42.084Z,102039.10
2023-04-03T15:55:21.373Z,102041.68
2023-04-03T15:57:54.087Z,102031.45
2023-04-03T16:00:22.473Z,102045.12
2023-04-03T16:02:56.801Z,102035.83
2023-04-03T16:05:24.858Z,102034.45
2023-04-03T16:07:57.601Z,102039.06
2023-04-03T16:10:28.274Z,102027.75
2023-04-03T16:13:08.712Z,102029.98
2023-04-03T16:15:37.609Z,102034.26
2023-04-03T16:18:06.293Z,102031.19
2023-04-03T16:20:40.355Z,102025.50
2023-04-03T16:23:11.965Z,102034.33
2023-04-03T16:25:49.333Z,102031.19
2023-04-03T16:28:23.668Z,102035.77
2023-04-03T16:30:52.054Z,102041.23
2023-04-03T16:33:26.392Z,102041.88
2023-04-03T16:36:03.088Z,102047.57
2023-04-03T16:38:36.525Z,102048.16
2023-04-03T16:41:06.852Z,102051.55
2023-04-03T16:43:47.148Z,102052.70
2023-04-03T16:46:20.420Z,102049.07
2023-04-03T16:48:54.699Z,102050.25
2023-04-03T16:51:28.581Z,102057.05
2023-04-03T16:54:08.849Z,102051.69
2023-04-03T16:56:52.291Z,102055.35
2023-04-03T16:59:24.564Z,102050.84
2023-04-03T17:01:56.030Z,102053.13
2023-04-03T17:04:28.925Z,102056.30
2023-04-03T17:07:09.748Z,102066.56
2023-04-03T17:09:42.678Z,102061.73
2023-04-03T17:12:13.381Z,102062.31
2023-04-03T17:14:45.993Z,102052.14
2023-04-03T17:17:28.501Z,102058.36
2023-04-03T17:19:57.189Z,102054.40
2023-04-03T17:22:26.244Z,102060.35
2023-04-03T17:25:26.721Z,102057.84
2023-04-03T17:27:58.486Z,102052.73
2023-04-03T17:30:33.318Z,102045.77
2023-04-03T17:33:06.244Z,102055.19
2023-04-03T17:35:49.080Z,102044.13
2023-04-03T17:38:50.221Z,102047.57
2023-04-03T17:41:46.035Z,102035.11
2023-04-03T17:44:35.014Z,102032.88
2023-04-03T17:47:17.401Z,102032.36
2023-04-03T17:49:53.212Z,102027.23
2023-04-03T17:52:21.236Z,102031.52
2023-04-03T17:54:52.922Z,102027.63
2023-04-03T17:57:25.740Z,102036.13
2023-04-03T18:00:03.475Z,102034.13
2023-04-03T18:02:57.538Z,102039.23
2023-04-03T18:05:55.473Z,102041.81
2023-04-03T18:08:52.557Z,102053.48
2023-04-03T18:11:28.705Z,102050.67
2023-04-03T18:14:06.256Z,102055.77
2023-04-03T18:16:40.935Z,102053.23
2023-04-03T18:19:38.933Z,102055.19
2023-04-03T18:22:36.841Z,102058.62
2023-04-03T18:25:11.153Z,102055.77
2023-04-03T18:27:48.040Z,102051.00
2023-04-03T18:30:23.877Z,102048.74
2023-04-03T18:33:03.582Z,102060.94
2023-04-03T18:35:36.752Z,102050.18
2023-04-03T18:38:12.492Z,102037.73
2023-04-03T18:40:50.701Z,102049.34
2023-04-03T18:49:45.381Z,102051.91
2023-04-03T18:52:55.482Z,102054.23
2023-04-03T18:55:37.336Z,102068.98
2023-04-03T18:58:24.187Z,102061.04
2023-04-03T19:01:00.476Z,102075.49
2023-04-03T19:03:51.569Z,102074.97
2023-04-03T19:06:26.201Z,102072.68
2023-04-03T19:09:01.088Z,102074.97
2023-04-03T19:11:38.098Z,102076.08
2023-04-03T19:14:32.243Z,102083.14
2023-04-03T19:17:09.890Z,102068.43
2023-04-03T19:19:41.633Z,102073.79
2023-04-03T19:22:14.477Z,102067.58
2023-04-03T19:24:42.611Z,102077.19
2023-04-03T19:27:37.255Z,102078.63
2023-04-03T19:33:01.659Z,102065.91
2023-04-03T19:35:44.744Z,102074.97
2023-04-03T19:41:26.222Z,102071.86
2023-04-03T19:44:05.474Z,102069.60
2023-04-03T19:46:51.410Z,102077.84
2023-04-03T19:49:39.163Z,102068.76
2023-04-03T19:52:36.407Z,102069.34
2023-04-03T19:55:15.126Z,102071.34
2023-04-03T19:58:13.404Z,102075.00
2023-04-03T20:00:44.941Z,102074.73
2023-04-03T20:03:19.232Z,102071.37
2023-04-03T20:08:57.798Z,102073.04
2023-04-03T20:11:43.070Z,102063.13
2023-04-03T20:14:40.710Z,102073.04
2023-04-03T20:17:19.742Z,102067.94
2023-04-03T20:20:09.949Z,102067.67
2023-04-03T20:22:42.554Z,102068.23
2023-04-03T20:25:43.780Z,102060.58
2023-04-03T20:28:48.637Z,102061.13
2023-04-03T20:31:28.886Z,102058.62
2023-04-03T20:33:58.874Z,102068.27
2023-04-03T20:36:29.721Z,102065.16
2023-04-03T20:39:06.786Z,102064.57
2023-04-03T20:41:40.536Z,102056.36
2023-04-03T20:44:18.191Z,102063.98
2023-04-03T20:46:53.540Z,102063.13
2023-04-03T20:49:28.960Z,102056.36
2023-04-03T20:52:07.366Z,102053.52
2023-04-03T20:54:36.736Z,102055.48
2023-04-03T21:00:08.702Z,102049.27
2023-04-03T21:02:42.686Z,102049.53
2023-04-03T21:05:35.282Z,102050.94
2023-04-03T21:08:41.926Z,102037.07
2023-04-03T21:11:48.690Z,102045.84
2023-04-03T21:14:54.917Z,102037.63
2023-04-03T21:17:30.263Z,102033.37
2023-04-03T21:20:07.004Z,102046.42
2023-04-03T21:22:45.043Z,102039.03
2023-04-03T21:25:19.160Z,102032.79
2023-04-03T21:27:54.090Z,102035.30
2023-04-03T21:30:31.061Z,102033.93
2023-04-03T21:33:03.162Z,102042.11
2023-04-03T21:35:35.988Z,102035.01
2023-04-03T21:38:07.543Z,102030.50
2023-04-03T21:40:36.848Z,102040.15
2023-04-03T21:43:10.393Z,102035.34
2023-04-03T21:45:44.891Z,102023.70
2023-04-03T21:48:21.619Z,102027.10
2023-04-03T21:50:55.611Z,102034.45
2023-04-03T21:53:32.095Z,102028.47
2023-04-03T21:56:04.517Z,102022.55
2023-04-03T21:58:33.968Z,102018.56
2023-04-03T22:01:16.864Z,102029.87
2023-04-03T22:03:50.635Z,102025.92
2023-04-03T22:06:18.678Z,102027.07
2023-04-03T22:08:47.704Z,102036.09
2023-04-03T22:11:23.828Z,102025.04
2023-04-03T22:13:59.035Z,102033.84
2023-04-03T22:16:32.108Z,102030.70
2023-04-03T22:19:00.948Z,102025.89
2023-04-03T22:21:33.769Z,102023.63
2023-04-03T22:24:06.660Z,102024.48
2023-04-03T22:26:40.879Z,102014.02
2023-04-03T22:29:30.830Z,102031.52
2023-04-03T22:32:07.616Z,102026.12
2023-04-03T22:34:39.421Z,102033.77
2023-04-03T22:37:18.100Z,102024.19
2023-04-03T22:39:52.281Z,102028.70
2023-04-03T22:42:23.290Z,102024.16
2023-04-03T22:45:05.233Z,102029.81
2023-04-03T22:47:42.830Z,102026.09
2023-04-03T22:50:14.791Z,102024.42
2023-04-03T22:52:43.095Z,102024.68
2023-04-03T22:55:19.360Z,102027.79
2023-04-03T22:57:53.618Z,102028.05
2023-04-03T23:00:32.097Z,102041.59
2023-04-03T23:03:00.831Z,102041.59
2023-04-03T23:05:36.933Z,102033.37
2023-04-03T23:08:08.997Z,102039.03
2023-04-03T23:10:44.808Z,102045.21
2023-04-03T23:13:23.482Z,102039.82
2023-04-03T23:16:01.451Z,102036.45
2023-04-03T23:18:36.318Z,102037.82
2023-04-03T23:21:16.889Z,102041.16
2023-04-03T23:23:49.679Z,102042.01
2023-04-03T23:26:17.773Z,102035.17
2023-04-03T23:28:46.038Z,102037.10
2023-04-03T23:31:22.867Z,102041.35
2023-04-03T23:33:50.879Z,102041.03
2023-04-03T23:36:24.606Z,102035.08
2023-04-03T23:39:06.274Z,102046.91
2023-04-03T23:41:39.928Z,102038.74
2023-04-03T23:44:15.031Z,102026.84
2023-04-03T23:46:55.286Z,102025.95
2023-04-03T23:49:26.270Z,102049.07
2023-04-03T23:51:57.789Z,102036.65
2023-04-03T23:54:32.826Z,102029.48
2023-04-03T23:57:06.267Z,102033.21
2023-04-03T23:59:34.351Z,102028.27
